sensor_id;sensor_type;location;lat;lon;timestamp;temperature;humidity
22779;DHT22;11556;51.194;3.800;2023-02-10T00:00:42;5.70;99.90
22779;DHT22;11556;51.194;3.800;2023-02-10T00:03:08;5.60;99.90
22779;DHT22;11556;51.194;3.800;2023-02-10T00:05:34;5.80;99.90
22779;DHT22;11556;51.194;3.800;2023-02-10T00:08:00;5.70;99.90
22779;DHT22;11556;51.194;3.800;2023-02-10T00:10:26;5.70;99.90
22779;DHT22;11556;51.194;3.800;2023-02-10T00:12:52;5.60;99.90
22779;DHT22;11556;51.194;3.800;2023-02-10T00:15:17;5.70;99.90
22779;DHT22;11556;51.194;3.800;2023-02-10T00:17:43;5.60;99.90
22779;DHT22;11556;51.194;3.800;2023-02-10T00:20:09;5.50;99.90
22779;DHT22;11556;51.194;3.800;2023-02-10T00:22:35;5.40;99.90
22779;DHT22;11556;51.194;3.800;2023-02-10T00:25:01;5.40;99.90
22779;DHT22;11556;51.194;3.800;2023-02-10T00:27:26;5.40;99.90
22779;DHT22;11556;51.194;3.800;2023-02-10T00:29:52;5.40;99.90
22779;DHT22;11556;51.194;3.800;2023-02-10T00:32:18;5.30;99.90
22779;DHT22;11556;51.194;3.800;2023-02-10T00:34:44;5.30;99.90
22779;DHT22;11556;51.194;3.800;2023-02-10T00:37:10;5.20;99.90
22779;DHT22;11556;51.194;3.800;2023-02-10T00:39:36;5.20;99.90
22779;DHT22;11556;51.194;3.800;2023-02-10T00:42:02;5.20;99.90
22779;DHT22;11556;51.194;3.800;2023-02-10T00:44:27;5.20;99.90
22779;DHT22;11556;51.194;3.800;2023-02-10T00:46:53;5.10;99.90
22779;DHT22;11556;51.194;3.800;2023-02-10T00:49:19;5.10;99.90
22779;DHT22;11556;51.194;3.800;2023-02-10T00:51:44;5.10;99.90
22779;DHT22;11556;51.194;3.800;2023-02-10T00:54:13;5.30;99.90
22779;DHT22;11556;51.194;3.800;2023-02-10T00:56:40;5.40;99.90
22779;DHT22;11556;51.194;3.800;2023-02-10T00:59:06;5.50;99.90
22779;DHT22;11556;51.194;3.800;2023-02-10T01:01:31;5.60;99.90
22779;DHT22;11556;51.194;3.800;2023-02-10T01:03:57;5.60;99.90
22779;DHT22;11556;51.194;3.800;2023-02-10T01:06:23;5.60;99.90
22779;DHT22;11556;51.194;3.800;2023-02-10T01:08:48;5.60;99.90
22779;DHT22;11556;51.194;3.800;2023-02-10T01:11:14;5.50;99.90
22779;DHT22;11556;51.194;3.800;2023-02-10T01:13:41;5.50;99.90
22779;DHT22;11556;51.194;3.800;2023-02-10T01:16:10;5.50;99.90
22779;DHT22;11556;51.194;3.800;2023-02-10T01:18:37;5.60;99.90
22779;DHT22;11556;51.194;3.800;2023-02-10T01:21:08;5.60;99.90
22779;DHT22;11556;51.194;3.800;2023-02-10T01:23:33;5.70;99.90
22779;DHT22;11556;51.194;3.800;2023-02-10T01:25:59;5.60;99.90
22779;DHT22;11556;51.194;3.800;2023-02-10T01:28:25;5.70;99.90
22779;DHT22;11556;51.194;3.800;2023-02-10T01:30:51;5.50;99.90
22779;DHT22;11556;51.194;3.800;2023-02-10T01:33:16;5.60;99.90
22779;DHT22;11556;51.194;3.800;2023-02-10T01:35:42;5.60;99.90
22779;DHT22;11556;51.194;3.800;2023-02-10T01:38:07;5.60;99.90
22779;DHT22;11556;51.194;3.800;2023-02-10T01:40:33;5.70;99.90
22779;DHT22;11556;51.194;3.800;2023-02-10T01:42:59;5.60;99.90
22779;DHT22;11556;51.194;3.800;2023-02-10T01:45:33;5.70;99.90
22779;DHT22;11556;51.194;3.800;2023-02-10T01:48:00;5.80;99.90
22779;DHT22;11556;51.194;3.800;2023-02-10T01:50:34;5.70;99.90
22779;DHT22;11556;51.194;3.800;2023-02-10T01:53:01;5.70;99.90
22779;DHT22;11556;51.194;3.800;2023-02-10T01:55:30;5.60;99.90
22779;DHT22;11556;51.194;3.800;2023-02-10T01:57:59;5.50;99.90
22779;DHT22;11556;51.194;3.800;2023-02-10T02:00:25;5.50;99.90
22779;DHT22;11556;51.194;3.800;2023-02-10T02:02:51;5.60;99.90
22779;DHT22;11556;51.194;3.800;2023-02-10T02:05:42;5.80;99.90
22779;DHT22;11556;51.194;3.800;2023-02-10T02:24:28;5.80;99.90
22779;DHT22;11556;51.194;3.800;2023-02-10T02:29:40;5.80;99.90
22779;DHT22;11556;51.194;3.800;2023-02-10T02:32:23;5.70;99.90
22779;DHT22;11556;51.194;3.800;2023-02-10T02:35:04;5.80;99.90
22779;DHT22;11556;51.194;3.800;2023-02-10T02:37:38;5.70;99.90
22779;DHT22;11556;51.194;3.800;2023-02-10T02:40:05;5.70;99.90
22779;DHT22;11556;51.194;3.800;2023-02-10T02:42:32;5.70;99.90
22779;DHT22;11556;51.194;3.800;2023-02-10T02:45:03;5.60;99.90
22779;DHT22;11556;51.194;3.800;2023-02-10T02:47:48;5.60;99.90
22779;DHT22;11556;51.194;3.800;2023-02-10T02:50:25;5.70;99.90
22779;DHT22;11556;51.194;3.800;2023-02-10T02:53:06;5.70;99.90
22779;DHT22;11556;51.194;3.800;2023-02-10T03:00:44;5.70;99.90
22779;DHT22;11556;51.194;3.800;2023-02-10T03:03:10;5.80;99.90
22779;DHT22;11556;51.194;3.800;2023-02-10T03:05:36;5.70;99.90
22779;DHT22;11556;51.194;3.800;2023-02-10T03:08:02;5.60;99.90
22779;DHT22;11556;51.194;3.800;2023-02-10T03:10:28;5.50;99.90
22779;DHT22;11556;51.194;3.800;2023-02-10T03:12:54;5.30;99.90
22779;DHT22;11556;51.194;3.800;2023-02-10T03:15:20;5.30;99.90
22779;DHT22;11556;51.194;3.800;2023-02-10T03:17:45;5.30;99.90
22779;DHT22;11556;51.194;3.800;2023-02-10T03:20:11;5.30;99.90
22779;DHT22;11556;51.194;3.800;2023-02-10T03:22:37;5.30;99.90
22779;DHT22;11556;51.194;3.800;2023-02-10T03:25:03;5.30;99.90
22779;DHT22;11556;51.194;3.800;2023-02-10T03:27:28;5.50;99.90
22779;DHT22;11556;51.194;3.800;2023-02-10T03:29:54;5.40;99.90
22779;DHT22;11556;51.194;3.800;2023-02-10T03:32:20;5.40;99.90
22779;DHT22;11556;51.194;3.800;2023-02-10T03:34:47;5.30;99.90
22779;DHT22;11556;51.194;3.800;2023-02-10T03:37:12;5.30;99.90
22779;DHT22;11556;51.194;3.800;2023-02-10T03:39:38;5.40;99.90
22779;DHT22;11556;51.194;3.800;2023-02-10T03:42:04;5.30;99.90
22779;DHT22;11556;51.194;3.800;2023-02-10T03:44:30;5.10;99.90
22779;DHT22;11556;51.194;3.800;2023-02-10T03:46:56;5.00;99.90
22779;DHT22;11556;51.194;3.800;2023-02-10T03:49:21;4.90;99.90
22779;DHT22;11556;51.194;3.800;2023-02-10T03:51:47;4.80;99.90
22779;DHT22;11556;51.194;3.800;2023-02-10T03:54:12;4.80;99.90
22779;DHT22;11556;51.194;3.800;2023-02-10T03:56:38;4.60;99.90
22779;DHT22;11556;51.194;3.800;2023-02-10T03:59:04;4.60;99.90
22779;DHT22;11556;51.194;3.800;2023-02-10T04:01:30;4.80;99.90
22779;DHT22;11556;51.194;3.800;2023-02-10T04:03:56;4.80;99.90
22779;DHT22;11556;51.194;3.800;2023-02-10T04:06:22;4.70;99.90
22779;DHT22;11556;51.194;3.800;2023-02-10T04:08:48;4.70;99.90
22779;DHT22;11556;51.194;3.800;2023-02-10T04:11:14;4.60;99.90
22779;DHT22;11556;51.194;3.800;2023-02-10T04:13:40;4.60;99.90
22779;DHT22;11556;51.194;3.800;2023-02-10T04:16:08;4.50;99.90
22779;DHT22;11556;51.194;3.800;2023-02-10T04:18:34;4.40;99.90
22779;DHT22;11556;51.194;3.800;2023-02-10T04:21:01;4.40;99.90
22779;DHT22;11556;51.194;3.800;2023-02-10T04:23:28;4.40;99.90
22779;DHT22;11556;51.194;3.800;2023-02-10T04:25:54;4.40;99.90
22779;DHT22;11556;51.194;3.800;2023-02-10T04:28:20;4.40;99.90
22779;DHT22;11556;51.194;3.800;2023-02-10T04:30:45;4.60;99.90
22779;DHT22;11556;51.194;3.800;2023-02-10T04:33:11;4.50;99.90
22779;DHT22;11556;51.194;3.800;2023-02-10T04:35:37;4.30;99.90
22779;DHT22;11556;51.194;3.800;2023-02-10T04:38:03;4.30;99.90
22779;DHT22;11556;51.194;3.800;2023-02-10T04:40:29;4.30;99.90
22779;DHT22;11556;51.194;3.800;2023-02-10T04:42:55;4.20;99.90
22779;DHT22;11556;51.194;3.800;2023-02-10T04:45:21;4.30;99.90
22779;DHT22;11556;51.194;3.800;2023-02-10T04:47:47;4.30;99.90
22779;DHT22;11556;51.194;3.800;2023-02-10T04:50:13;4.30;99.90
22779;DHT22;11556;51.194;3.800;2023-02-10T04:52:38;4.50;99.90
22779;DHT22;11556;51.194;3.800;2023-02-10T04:55:04;4.60;99.90
22779;DHT22;11556;51.194;3.800;2023-02-10T04:57:30;4.70;99.90
22779;DHT22;11556;51.194;3.800;2023-02-10T04:59:55;4.70;99.90
22779;DHT22;11556;51.194;3.800;2023-02-10T05:02:21;4.80;99.90
22779;DHT22;11556;51.194;3.800;2023-02-10T05:04:47;4.80;99.90
22779;DHT22;11556;51.194;3.800;2023-02-10T05:07:12;4.80;99.90
22779;DHT22;11556;51.194;3.800;2023-02-10T05:09:38;4.90;99.90
22779;DHT22;11556;51.194;3.800;2023-02-10T05:12:04;5.00;99.90
22779;DHT22;11556;51.194;3.800;2023-02-10T05:14:29;4.90;99.90
22779;DHT22;11556;51.194;3.800;2023-02-10T05:16:55;4.90;99.90
22779;DHT22;11556;51.194;3.800;2023-02-10T05:19:20;4.80;99.90
22779;DHT22;11556;51.194;3.800;2023-02-10T05:21:46;4.80;99.90
22779;DHT22;11556;51.194;3.800;2023-02-10T05:24:12;4.80;99.90
22779;DHT22;11556;51.194;3.800;2023-02-10T05:26:37;4.90;99.90
22779;DHT22;11556;51.194;3.800;2023-02-10T05:29:04;4.90;99.90
22779;DHT22;11556;51.194;3.800;2023-02-10T05:31:30;4.80;99.90
22779;DHT22;11556;51.194;3.800;2023-02-10T05:33:56;4.80;99.90
22779;DHT22;11556;51.194;3.800;2023-02-10T05:36:21;4.70;99.90
22779;DHT22;11556;51.194;3.800;2023-02-10T05:38:47;4.70;99.90
22779;DHT22;11556;51.194;3.800;2023-02-10T05:41:31;4.80;99.90
22779;DHT22;11556;51.194;3.800;2023-02-10T05:43:57;4.80;99.90
22779;DHT22;11556;51.194;3.800;2023-02-10T05:46:23;4.80;99.90
22779;DHT22;11556;51.194;3.800;2023-02-10T05:48:49;4.70;99.90
22779;DHT22;11556;51.194;3.800;2023-02-10T05:51:14;4.80;99.90
22779;DHT22;11556;51.194;3.800;2023-02-10T05:53:40;4.80;99.90
22779;DHT22;11556;51.194;3.800;2023-02-10T05:56:06;4.90;99.90
22779;DHT22;11556;51.194;3.800;2023-02-10T05:58:32;4.80;99.90
22779;DHT22;11556;51.194;3.800;2023-02-10T06:01:00;4.70;99.90
22779;DHT22;11556;51.194;3.800;2023-02-10T06:03:26;4.80;99.90
22779;DHT22;11556;51.194;3.800;2023-02-10T06:05:51;4.80;99.90
22779;DHT22;11556;51.194;3.800;2023-02-10T06:08:17;4.80;99.90
22779;DHT22;11556;51.194;3.800;2023-02-10T06:10:43;4.80;99.90
22779;DHT22;11556;51.194;3.800;2023-02-10T06:13:09;4.80;99.90
22779;DHT22;11556;51.194;3.800;2023-02-10T06:15:36;4.90;99.90
22779;DHT22;11556;51.194;3.800;2023-02-10T06:18:02;4.80;99.90
22779;DHT22;11556;51.194;3.800;2023-02-10T06:20:27;4.80;99.90
22779;DHT22;11556;51.194;3.800;2023-02-10T06:22:53;4.90;99.90
22779;DHT22;11556;51.194;3.800;2023-02-10T06:25:18;4.80;99.90
22779;DHT22;11556;51.194;3.800;2023-02-10T06:27:44;4.80;99.90
22779;DHT22;11556;51.194;3.800;2023-02-10T06:30:10;4.70;99.90
22779;DHT22;11556;51.194;3.800;2023-02-10T06:32:35;4.60;99.90
22779;DHT22;11556;51.194;3.800;2023-02-10T06:35:01;4.60;99.90
22779;DHT22;11556;51.194;3.800;2023-02-10T06:37:27;4.60;99.90
22779;DHT22;11556;51.194;3.800;2023-02-10T06:39:52;4.70;99.90
22779;DHT22;11556;51.194;3.800;2023-02-10T06:42:18;4.70;99.90
22779;DHT22;11556;51.194;3.800;2023-02-10T06:44:44;4.70;99.90
22779;DHT22;11556;51.194;3.800;2023-02-10T06:47:09;4.80;99.90
22779;DHT22;11556;51.194;3.800;2023-02-10T06:49:35;4.80;99.90
22779;DHT22;11556;51.194;3.800;2023-02-10T06:52:01;4.80;99.90
22779;DHT22;11556;51.194;3.800;2023-02-10T06:54:28;4.80;99.90
22779;DHT22;11556;51.194;3.800;2023-02-10T06:56:53;4.80;99.90
22779;DHT22;11556;51.194;3.800;2023-02-10T06:59:20;4.90;99.90
22779;DHT22;11556;51.194;3.800;2023-02-10T07:01:46;4.90;99.90
22779;DHT22;11556;51.194;3.800;2023-02-10T07:04:12;4.90;99.90
22779;DHT22;11556;51.194;3.800;2023-02-10T07:06:38;4.80;99.90
22779;DHT22;11556;51.194;3.800;2023-02-10T07:09:04;4.70;99.90
22779;DHT22;11556;51.194;3.800;2023-02-10T07:11:31;4.70;99.90
22779;DHT22;11556;51.194;3.800;2023-02-10T07:13:57;4.70;99.90
22779;DHT22;11556;51.194;3.800;2023-02-10T07:16:23;4.80;99.90
22779;DHT22;11556;51.194;3.800;2023-02-10T07:18:48;4.80;99.90
22779;DHT22;11556;51.194;3.800;2023-02-10T07:21:14;4.80;99.90
22779;DHT22;11556;51.194;3.800;2023-02-10T07:23:40;4.80;99.90
22779;DHT22;11556;51.194;3.800;2023-02-10T07:26:06;4.80;99.90
22779;DHT22;11556;51.194;3.800;2023-02-10T07:28:33;4.90;99.90
22779;DHT22;11556;51.194;3.800;2023-02-10T07:30:58;5.00;99.90
22779;DHT22;11556;51.194;3.800;2023-02-10T07:33:24;5.00;99.90
22779;DHT22;11556;51.194;3.800;2023-02-10T07:35:50;5.00;99.90
22779;DHT22;11556;51.194;3.800;2023-02-10T07:38:15;5.00;99.90
22779;DHT22;11556;51.194;3.800;2023-02-10T07:40:41;5.00;99.90
22779;DHT22;11556;51.194;3.800;2023-02-10T07:43:06;5.10;99.90
22779;DHT22;11556;51.194;3.800;2023-02-10T07:45:32;5.10;99.90
22779;DHT22;11556;51.194;3.800;2023-02-10T07:47:58;5.00;99.90
22779;DHT22;11556;51.194;3.800;2023-02-10T07:50:24;5.10;99.90
22779;DHT22;11556;51.194;3.800;2023-02-10T07:52:50;5.20;99.90
22779;DHT22;11556;51.194;3.800;2023-02-10T07:55:16;5.20;99.90
22779;DHT22;11556;51.194;3.800;2023-02-10T07:57:41;5.30;99.90
22779;DHT22;11556;51.194;3.800;2023-02-10T08:00:08;5.40;99.90
22779;DHT22;11556;51.194;3.800;2023-02-10T08:02:34;5.40;99.90
22779;DHT22;11556;51.194;3.800;2023-02-10T08:05:00;5.50;99.90
22779;DHT22;11556;51.194;3.800;2023-02-10T08:07:25;5.50;99.90
22779;DHT22;11556;51.194;3.800;2023-02-10T08:09:51;5.40;99.90
22779;DHT22;11556;51.194;3.800;2023-02-10T08:12:17;5.50;99.90
22779;DHT22;11556;51.194;3.800;2023-02-10T08:14:42;5.50;99.90
22779;DHT22;11556;51.194;3.800;2023-02-10T08:17:08;5.50;99.90
22779;DHT22;11556;51.194;3.800;2023-02-10T08:19:34;5.70;99.90
22779;DHT22;11556;51.194;3.800;2023-02-10T08:22:05;5.90;99.90
22779;DHT22;11556;51.194;3.800;2023-02-10T08:24:31;6.10;99.90
22779;DHT22;11556;51.194;3.800;2023-02-10T08:26:56;6.10;99.90
22779;DHT22;11556;51.194;3.800;2023-02-10T08:29:22;6.50;99.90
22779;DHT22;11556;51.194;3.800;2023-02-10T08:31:51;6.90;99.90
22779;DHT22;11556;51.194;3.800;2023-02-10T08:34:19;7.30;99.90
22779;DHT22;11556;51.194;3.800;2023-02-10T08:36:45;7.80;99.90
22779;DHT22;11556;51.194;3.800;2023-02-10T08:39:11;8.40;99.90
22779;DHT22;11556;51.194;3.800;2023-02-10T08:41:37;8.80;99.90
22779;DHT22;11556;51.194;3.800;2023-02-10T08:44:04;9.20;99.90
22779;DHT22;11556;51.194;3.800;2023-02-10T08:46:30;9.40;99.90
22779;DHT22;11556;51.194;3.800;2023-02-10T08:48:55;9.50;99.90
22779;DHT22;11556;51.194;3.800;2023-02-10T08:51:21;9.50;99.90
22779;DHT22;11556;51.194;3.800;2023-02-10T08:53:46;9.60;99.90
22779;DHT22;11556;51.194;3.800;2023-02-10T08:56:17;9.50;99.90
22779;DHT22;11556;51.194;3.800;2023-02-10T08:58:43;9.40;99.90
22779;DHT22;11556;51.194;3.800;2023-02-10T09:01:11;9.30;99.90
22779;DHT22;11556;51.194;3.800;2023-02-10T09:03:37;9.30;99.90
22779;DHT22;11556;51.194;3.800;2023-02-10T09:06:03;9.30;99.90
22779;DHT22;11556;51.194;3.800;2023-02-10T09:08:29;9.20;99.90
22779;DHT22;11556;51.194;3.800;2023-02-10T09:10:54;9.10;99.90
22779;DHT22;11556;51.194;3.800;2023-02-10T09:13:20;8.90;99.90
22779;DHT22;11556;51.194;3.800;2023-02-10T09:15:46;8.80;99.90
22779;DHT22;11556;51.194;3.800;2023-02-10T09:18:12;8.70;99.90
22779;DHT22;11556;51.194;3.800;2023-02-10T09:20:38;8.60;99.90
22779;DHT22;11556;51.194;3.800;2023-02-10T09:23:03;8.50;99.90
22779;DHT22;11556;51.194;3.800;2023-02-10T09:25:29;8.30;99.90
22779;DHT22;11556;51.194;3.800;2023-02-10T09:27:55;8.20;99.90
22779;DHT22;11556;51.194;3.800;2023-02-10T09:30:26;8.00;99.90
22779;DHT22;11556;51.194;3.800;2023-02-10T09:32:52;8.00;99.90
22779;DHT22;11556;51.194;3.800;2023-02-10T09:35:18;7.90;99.90
22779;DHT22;11556;51.194;3.800;2023-02-10T09:37:43;7.80;99.90
22779;DHT22;11556;51.194;3.800;2023-02-10T09:40:24;7.60;99.90
22779;DHT22;11556;51.194;3.800;2023-02-10T09:45:47;7.60;99.90
22779;DHT22;11556;51.194;3.800;2023-02-10T09:49:00;7.60;99.90
22779;DHT22;11556;51.194;3.800;2023-02-10T09:51:50;7.60;99.90
22779;DHT22;11556;51.194;3.800;2023-02-10T09:54:18;7.50;99.90
22779;DHT22;11556;51.194;3.800;2023-02-10T09:56:44;7.60;99.90
22779;DHT22;11556;51.194;3.800;2023-02-10T09:59:14;7.70;99.90
22779;DHT22;11556;51.194;3.800;2023-02-10T10:01:49;7.50;99.90
22779;DHT22;11556;51.194;3.800;2023-02-10T10:04:18;7.50;99.90
22779;DHT22;11556;51.194;3.800;2023-02-10T10:06:49;7.40;99.90
22779;DHT22;11556;51.194;3.800;2023-02-10T10:11:43;7.40;99.90
22779;DHT22;11556;51.194;3.800;2023-02-10T10:14:39;7.40;99.90
22779;DHT22;11556;51.194;3.800;2023-02-10T10:31:33;7.50;99.90
22779;DHT22;11556;51.194;3.800;2023-02-10T10:36:39;7.40;99.90
22779;DHT22;11556;51.194;3.800;2023-02-10T10:41:49;7.50;99.90
22779;DHT22;11556;51.194;3.800;2023-02-10T10:44:18;7.50;99.90
22779;DHT22;11556;51.194;3.800;2023-02-10T10:46:48;7.50;99.90
22779;DHT22;11556;51.194;3.800;2023-02-10T10:49:15;7.70;99.90
22779;DHT22;11556;51.194;3.800;2023-02-10T10:51:41;7.70;99.90
22779;DHT22;11556;51.194;3.800;2023-02-10T10:54:15;7.80;99.90
22779;DHT22;11556;51.194;3.800;2023-02-10T10:56:47;8.00;99.90
22779;DHT22;11556;51.194;3.800;2023-02-10T11:02:16;8.20;99.90
22779;DHT22;11556;51.194;3.800;2023-02-10T11:04:42;8.30;99.90
22779;DHT22;11556;51.194;3.800;2023-02-10T11:07:20;8.40;99.90
22779;DHT22;11556;51.194;3.800;2023-02-10T11:09:51;8.50;99.90
22779;DHT22;11556;51.194;3.800;2023-02-10T11:14:49;8.50;99.90
22779;DHT22;11556;51.194;3.800;2023-02-10T11:17:36;8.50;99.90
22779;DHT22;11556;51.194;3.800;2023-02-10T11:22:39;8.50;99.90
22779;DHT22;11556;51.194;3.800;2023-02-10T11:27:53;8.60;99.90
22779;DHT22;11556;51.194;3.800;2023-02-10T11:30:30;8.80;99.90
22779;DHT22;11556;51.194;3.800;2023-02-10T11:32:57;8.90;99.90
22779;DHT22;11556;51.194;3.800;2023-02-10T11:35:24;8.90;99.90
22779;DHT22;11556;51.194;3.800;2023-02-10T11:37:56;8.90;99.90
22779;DHT22;11556;51.194;3.800;2023-02-10T11:40:23;9.10;99.90
22779;DHT22;11556;51.194;3.800;2023-02-10T11:42:51;9.30;99.90
22779;DHT22;11556;51.194;3.800;2023-02-10T11:45:29;9.50;99.90
22779;DHT22;11556;51.194;3.800;2023-02-10T11:48:16;9.50;99.90
22779;DHT22;11556;51.194;3.800;2023-02-10T11:50:43;9.50;99.90
22779;DHT22;11556;51.194;3.800;2023-02-10T11:53:29;9.40;99.90
22779;DHT22;11556;51.194;3.800;2023-02-10T12:07:15;9.90;99.90
22779;DHT22;11556;51.194;3.800;2023-02-10T12:09:58;10.10;99.90
22779;DHT22;11556;51.194;3.800;2023-02-10T12:12:47;10.30;99.90
22779;DHT22;11556;51.194;3.800;2023-02-10T12:15:37;10.50;99.90
22779;DHT22;11556;51.194;3.800;2023-02-10T12:29:21;11.20;99.90
22779;DHT22;11556;51.194;3.800;2023-02-10T12:31:48;11.30;99.90
22779;DHT22;11556;51.194;3.800;2023-02-10T12:37:36;12.30;99.90
22779;DHT22;11556;51.194;3.800;2023-02-10T12:40:28;13.00;99.90
22779;DHT22;11556;51.194;3.800;2023-02-10T12:43:26;13.50;99.90
22779;DHT22;11556;51.194;3.800;2023-02-10T12:54:26;14.00;99.90
22779;DHT22;11556;51.194;3.800;2023-02-10T12:57:00;13.90;99.90
22779;DHT22;11556;51.194;3.800;2023-02-10T12:59:50;14.00;99.90
22779;DHT22;11556;51.194;3.800;2023-02-10T13:03:06;14.10;99.90
22779;DHT22;11556;51.194;3.800;2023-02-10T13:05:31;14.10;99.90
22779;DHT22;11556;51.194;3.800;2023-02-10T13:08:02;13.70;99.90
22779;DHT22;11556;51.194;3.800;2023-02-10T13:10:39;13.60;99.90
22779;DHT22;11556;51.194;3.800;2023-02-10T13:13:11;13.70;99.90
22779;DHT22;11556;51.194;3.800;2023-02-10T13:15:41;12.90;99.90
22779;DHT22;11556;51.194;3.800;2023-02-10T13:18:19;12.80;99.90
22779;DHT22;11556;51.194;3.800;2023-02-10T13:20:49;12.80;99.90
22779;DHT22;11556;51.194;3.800;2023-02-10T13:23:42;13.10;99.90
22779;DHT22;11556;51.194;3.800;2023-02-10T13:32:11;12.70;99.90
22779;DHT22;11556;51.194;3.800;2023-02-10T13:34:47;13.00;99.90
22779;DHT22;11556;51.194;3.800;2023-02-10T13:37:22;13.40;99.90
22779;DHT22;11556;51.194;3.800;2023-02-10T13:39:57;13.50;99.90
22779;DHT22;11556;51.194;3.800;2023-02-10T13:47:43;14.50;99.90
22779;DHT22;11556;51.194;3.800;2023-02-10T13:52:52;15.00;99.90
22779;DHT22;11556;51.194;3.800;2023-02-10T13:58:16;14.70;99.90
22779;DHT22;11556;51.194;3.800;2023-02-10T14:00:43;14.90;99.90
22779;DHT22;11556;51.194;3.800;2023-02-10T14:05:37;14.50;99.90
22779;DHT22;11556;51.194;3.800;2023-02-10T14:11:01;14.50;99.90
22779;DHT22;11556;51.194;3.800;2023-02-10T14:13:32;14.10;99.90
22779;DHT22;11556;51.194;3.800;2023-02-10T14:16:07;13.80;99.90
22779;DHT22;11556;51.194;3.800;2023-02-10T14:18:58;14.00;99.90
22779;DHT22;11556;51.194;3.800;2023-02-10T14:21:25;14.40;99.90
22779;DHT22;11556;51.194;3.800;2023-02-10T14:23:53;14.10;99.90
22779;DHT22;11556;51.194;3.800;2023-02-10T14:26:26;14.10;99.90
22779;DHT22;11556;51.194;3.800;2023-02-10T14:28:56;13.60;99.90
22779;DHT22;11556;51.194;3.800;2023-02-10T14:31:33;13.10;99.90
22779;DHT22;11556;51.194;3.800;2023-02-10T14:34:04;12.90;99.90
22779;DHT22;11556;51.194;3.800;2023-02-10T14:36:30;12.70;99.90
22779;DHT22;11556;51.194;3.800;2023-02-10T14:38:58;12.50;99.90
22779;DHT22;11556;51.194;3.800;2023-02-10T14:41:26;12.40;99.90
22779;DHT22;11556;51.194;3.800;2023-02-10T14:43:53;12.40;99.90
22779;DHT22;11556;51.194;3.800;2023-02-10T14:46:24;12.20;99.90
22779;DHT22;11556;51.194;3.800;2023-02-10T14:49:07;12.30;99.90
22779;DHT22;11556;51.194;3.800;2023-02-10T14:51:39;12.40;99.90
22779;DHT22;11556;51.194;3.800;2023-02-10T14:54:20;12.60;99.90
22779;DHT22;11556;51.194;3.800;2023-02-10T14:57:01;12.60;99.90
22779;DHT22;11556;51.194;3.800;2023-02-10T14:59:29;12.60;99.90
22779;DHT22;11556;51.194;3.800;2023-02-10T15:01:59;12.80;99.90
22779;DHT22;11556;51.194;3.800;2023-02-10T15:04:25;13.00;99.90
22779;DHT22;11556;51.194;3.800;2023-02-10T15:06:56;13.30;99.90
22779;DHT22;11556;51.194;3.800;2023-02-10T15:09:33;13.30;99.90
22779;DHT22;11556;51.194;3.800;2023-02-10T15:12:08;13.00;99.90
22779;DHT22;11556;51.194;3.800;2023-02-10T15:17:46;12.40;99.90
22779;DHT22;11556;51.194;3.800;2023-02-10T15:23:10;12.20;99.90
22779;DHT22;11556;51.194;3.800;2023-02-10T15:31:14;11.90;99.90
22779;DHT22;11556;51.194;3.800;2023-02-10T15:41:42;11.40;99.90
22779;DHT22;11556;51.194;3.800;2023-02-10T15:46:47;11.30;99.90
22779;DHT22;11556;51.194;3.800;2023-02-10T15:49:15;11.30;99.90
22779;DHT22;11556;51.194;3.800;2023-02-10T15:51:50;11.20;99.90
22779;DHT22;11556;51.194;3.800;2023-02-10T15:54:21;11.10;99.90
22779;DHT22;11556;51.194;3.800;2023-02-10T15:57:05;11.00;99.90
22779;DHT22;11556;51.194;3.800;2023-02-10T15:59:32;10.90;99.90
22779;DHT22;11556;51.194;3.800;2023-02-10T16:02:00;10.80;99.90
22779;DHT22;11556;51.194;3.800;2023-02-10T16:04:27;10.80;99.90
22779;DHT22;11556;51.194;3.800;2023-02-10T16:06:56;10.90;99.90
22779;DHT22;11556;51.194;3.800;2023-02-10T16:09:23;10.80;99.90
22779;DHT22;11556;51.194;3.800;2023-02-10T16:11:49;10.60;99.90
22779;DHT22;11556;51.194;3.800;2023-02-10T16:14:14;10.60;99.90
22779;DHT22;11556;51.194;3.800;2023-02-10T16:16:47;10.60;99.90
22779;DHT22;11556;51.194;3.800;2023-02-10T16:19:18;10.60;99.90
22779;DHT22;11556;51.194;3.800;2023-02-10T16:21:44;10.60;99.90
22779;DHT22;11556;51.194;3.800;2023-02-10T16:24:19;10.60;99.90
22779;DHT22;11556;51.194;3.800;2023-02-10T16:26:46;10.70;99.90
22779;DHT22;11556;51.194;3.800;2023-02-10T16:29:18;10.60;99.90
22779;DHT22;11556;51.194;3.800;2023-02-10T16:31:44;10.60;99.90
22779;DHT22;11556;51.194;3.800;2023-02-10T16:34:10;10.50;99.90
22779;DHT22;11556;51.194;3.800;2023-02-10T16:36:37;10.40;99.90
22779;DHT22;11556;51.194;3.800;2023-02-10T16:39:04;10.40;99.90
22779;DHT22;11556;51.194;3.800;2023-02-10T16:41:29;10.40;99.90
22779;DHT22;11556;51.194;3.800;2023-02-10T16:43:55;10.40;99.90
22779;DHT22;11556;51.194;3.800;2023-02-10T16:46:20;10.30;99.90
22779;DHT22;11556;51.194;3.800;2023-02-10T16:48:47;10.20;99.90
22779;DHT22;11556;51.194;3.800;2023-02-10T16:51:13;10.00;99.90
22779;DHT22;11556;51.194;3.800;2023-02-10T16:53:39;9.80;99.90
22779;DHT22;11556;51.194;3.800;2023-02-10T16:56:05;9.80;99.90
22779;DHT22;11556;51.194;3.800;2023-02-10T16:58:31;9.80;99.90
22779;DHT22;11556;51.194;3.800;2023-02-10T17:00:57;9.70;99.90
22779;DHT22;11556;51.194;3.800;2023-02-10T17:03:23;9.60;99.90
22779;DHT22;11556;51.194;3.800;2023-02-10T17:05:55;9.50;99.90
22779;DHT22;11556;51.194;3.800;2023-02-10T17:08:21;9.60;99.90
22779;DHT22;11556;51.194;3.800;2023-02-10T17:10:47;9.60;99.90
22779;DHT22;11556;51.194;3.800;2023-02-10T17:13:13;9.50;99.90
22779;DHT22;11556;51.194;3.800;2023-02-10T17:15:39;9.50;99.90
22779;DHT22;11556;51.194;3.800;2023-02-10T17:18:05;9.50;99.90
22779;DHT22;11556;51.194;3.800;2023-02-10T17:20:33;9.40;99.90
22779;DHT22;11556;51.194;3.800;2023-02-10T17:22:59;9.30;99.90
22779;DHT22;11556;51.194;3.800;2023-02-10T17:25:28;9.30;99.90
22779;DHT22;11556;51.194;3.800;2023-02-10T17:27:55;9.20;99.90
22779;DHT22;11556;51.194;3.800;2023-02-10T17:30:22;9.10;99.90
22779;DHT22;11556;51.194;3.800;2023-02-10T17:32:49;9.10;99.90
22779;DHT22;11556;51.194;3.800;2023-02-10T17:35:17;9.10;99.90
22779;DHT22;11556;51.194;3.800;2023-02-10T17:37:43;9.10;99.90
22779;DHT22;11556;51.194;3.800;2023-02-10T17:40:16;9.00;99.90
22779;DHT22;11556;51.194;3.800;2023-02-10T17:42:47;8.90;99.90
22779;DHT22;11556;51.194;3.800;2023-02-10T17:45:14;8.90;99.90
22779;DHT22;11556;51.194;3.800;2023-02-10T17:47:40;8.90;99.90
22779;DHT22;11556;51.194;3.800;2023-02-10T17:50:06;8.90;99.90
22779;DHT22;11556;51.194;3.800;2023-02-10T17:52:32;8.90;99.90
22779;DHT22;11556;51.194;3.800;2023-02-10T17:54:57;8.80;99.90
22779;DHT22;11556;51.194;3.800;2023-02-10T17:57:24;8.70;99.90
22779;DHT22;11556;51.194;3.800;2023-02-10T17:59:50;8.80;99.90
22779;DHT22;11556;51.194;3.800;2023-02-10T18:02:15;8.80;99.90
22779;DHT22;11556;51.194;3.800;2023-02-10T18:04:42;8.70;99.90
22779;DHT22;11556;51.194;3.800;2023-02-10T18:07:09;8.80;99.90
22779;DHT22;11556;51.194;3.800;2023-02-10T18:09:35;8.70;99.90